createdAt,value
2022-10-09T00:01:17.702Z,100456.34
2022-10-09T00:03:47.001Z,100447.53
2022-10-09T00:06:17.499Z,100452.44
2022-10-09T00:08:44.953Z,100452.88
2022-10-09T00:11:15.490Z,100466.75
2022-10-09T00:13:42.948Z,100464.66
2022-10-09T00:16:13.015Z,100471.28
2022-10-09T00:18:40.745Z,100466.06
2022-10-09T00:21:20.880Z,100460.88
2022-10-09T00:23:48.844Z,100473.19
2022-10-09T00:26:16.876Z,100485.41
2022-10-09T00:31:24.572Z,100492.94
2022-10-09T00:33:52.119Z,100483.78
2022-10-09T00:36:22.193Z,100501.38
2022-10-09T00:38:50.173Z,100502.94
2022-10-09T00:41:20.725Z,100495.66
2022-10-09T00:43:52.710Z,100499.97
2022-10-09T00:46:34.736Z,100490.41
2022-10-09T00:49:01.930Z,100496.84
2022-10-09T00:51:31.329Z,100501.13
2022-10-09T00:53:59.698Z,100497.69
2022-10-09T00:56:27.951Z,100500.06
2022-10-09T00:58:57.810Z,100495.28
2022-10-09T01:01:25.135Z,100494.31
2022-10-09T01:03:52.430Z,100495.78
2022-10-09T01:06:25.922Z,100511.88
2022-10-09T01:09:05.258Z,100507.38
2022-10-09T01:11:49.222Z,100508.09
2022-10-09T01:14:16.293Z,100504.09
2022-10-09T01:17:22.632Z,100508.47
2022-10-09T01:19:59.561Z,100501.88
2022-10-09T01:22:43.593Z,100513.34
2022-10-09T01:26:01.688Z,100504.66
2022-10-09T01:28:30.631Z,100503.59
2022-10-09T01:31:01.603Z,100500.66
2022-10-09T01:33:31.381Z,100502.50
2022-10-09T01:36:00.865Z,100504.22
2022-10-09T01:38:30.043Z,100518.94
2022-10-09T01:40:58.226Z,100520.41
2022-10-09T01:43:25.629Z,100526.06
2022-10-09T01:45:52.867Z,100533.13
2022-10-09T01:48:25.078Z,100542.09
2022-10-09T01:50:58.216Z,100543.72
2022-10-09T01:53:26.519Z,100539.19
2022-10-09T01:55:57.534Z,100538.47
2022-10-09T01:58:30.793Z,100549.31
2022-10-09T02:01:07.731Z,100559.28
2022-10-09T02:03:38.617Z,100557.94
2022-10-09T02:06:08.305Z,100567.78
2022-10-09T02:08:38.757Z,100558.53
2022-10-09T02:11:06.891Z,100569.25
2022-10-09T02:13:35.851Z,100575.09
2022-10-09T02:16:24.369Z,100578.41
2022-10-09T02:19:08.466Z,100579.22
2022-10-09T02:21:46.430Z,100592.13
2022-10-09T02:24:18.525Z,100596.63
2022-10-09T02:26:45.994Z,100594.06
2022-10-09T02:29:14.992Z,100604.53
2022-10-09T02:31:43.614Z,100603.44
2022-10-09T02:34:14.177Z,100600.38
2022-10-09T02:36:41.789Z,100607.19
2022-10-09T02:39:09.983Z,100610.84
2022-10-09T02:41:37.129Z,100615.72
2022-10-09T02:44:05.970Z,100619.13
2022-10-09T02:46:34.329Z,100617.53
2022-10-09T02:49:01.665Z,100627.84
2022-10-09T02:51:28.873Z,100620.06
2022-10-09T02:53:56.857Z,100622.63
2022-10-09T02:56:24.180Z,100627.16
2022-10-09T02:58:51.579Z,100621.16
2022-10-09T03:01:20.155Z,100624.53
2022-10-09T03:03:47.706Z,100631.03
2022-10-09T03:06:17.746Z,100627.56
2022-10-09T03:08:47.524Z,100625.34
2022-10-09T03:11:16.895Z,100627.53
2022-10-09T03:13:44.413Z,100631.44
2022-10-09T03:16:14.907Z,100635.06
2022-10-09T03:18:42.990Z,100635.59
2022-10-09T03:21:12.715Z,100631.78
2022-10-09T03:23:40.567Z,100633.78
2022-10-09T03:26:10.292Z,100644.84
2022-10-09T03:28:40.345Z,100647.94
2022-10-09T03:31:08.779Z,100660.34
2022-10-09T03:33:36.790Z,100658.38
2022-10-09T03:36:05.799Z,100662.00
2022-10-09T03:38:33.186Z,100656.13
2022-10-09T03:41:02.415Z,100658.59
2022-10-09T03:43:29.753Z,100666.19
2022-10-09T03:46:01.016Z,100675.44
2022-10-09T03:48:28.399Z,100675.81
2022-10-09T03:50:55.598Z,100675.59
2022-10-09T03:53:23.020Z,100687.00
2022-10-09T03:55:50.147Z,100677.88
2022-10-09T03:58:17.251Z,100680.81
2022-10-09T04:00:47.508Z,100687.63
2022-10-09T04:03:14.677Z,100685.25
2022-10-09T04:05:41.828Z,100694.22
2022-10-09T04:08:09.546Z,100702.84
2022-10-09T04:10:36.689Z,100698.84
2022-10-09T04:13:03.898Z,100693.19
2022-10-09T04:15:31.316Z,100702.44
2022-10-09T04:17:58.476Z,100695.19
2022-10-09T04:20:25.744Z,100710.41
2022-10-09T04:22:53.221Z,100716.38
2022-10-09T04:25:20.431Z,100724.16
2022-10-09T04:27:47.587Z,100711.69
2022-10-09T04:30:15.106Z,100725.94
2022-10-09T04:32:42.333Z,100715.66
2022-10-09T04:35:09.465Z,100726.78
2022-10-09T04:37:36.907Z,100728.81
2022-10-09T04:40:04.899Z,100723.47
2022-10-09T04:42:32.102Z,100728.50
2022-10-09T04:44:59.448Z,100727.91
2022-10-09T04:47:26.582Z,100739.19
2022-10-09T04:49:53.744Z,100736.22
2022-10-09T04:52:21.095Z,100737.00
2022-10-09T04:54:48.214Z,100743.28
2022-10-09T04:57:15.437Z,100745.91
2022-10-09T04:59:42.852Z,100756.81
2022-10-09T05:02:10.110Z,100756.09
2022-10-09T05:04:37.399Z,100769.25
2022-10-09T05:07:04.735Z,100764.31
2022-10-09T05:09:31.945Z,100779.06
2022-10-09T05:11:59.074Z,100773.09
2022-10-09T05:14:26.491Z,100773.09
2022-10-09T05:17:13.130Z,100780.16
2022-10-09T05:19:40.967Z,100792.34
2022-10-09T05:22:08.133Z,100792.53
2022-10-09T05:24:35.262Z,100792.72
2022-10-09T05:27:02.627Z,100798.63
2022-10-09T05:29:29.867Z,100800.56
2022-10-09T05:31:57.030Z,100799.44
2022-10-09T05:34:24.405Z,100794.66
2022-10-09T05:36:51.578Z,100807.38
2022-10-09T05:39:18.943Z,100803.81
2022-10-09T05:41:46.312Z,100816.81
2022-10-09T05:44:13.519Z,100820.25
2022-10-09T05:46:40.855Z,100830.00
2022-10-09T05:49:08.083Z,100814.50
2022-10-09T05:51:40.111Z,100828.84
2022-10-09T05:54:07.450Z,100844.84
2022-10-09T05:56:37.598Z,100856.38
2022-10-09T05:59:07.418Z,100852.09
2022-10-09T06:01:38.977Z,100856.44
2022-10-09T06:04:10.040Z,100859.34
2022-10-09T06:06:39.696Z,100857.97
2022-10-09T06:09:07.952Z,100867.75
2022-10-09T06:11:37.290Z,100881.38
2022-10-09T06:14:06.318Z,100887.22
2022-10-09T06:16:37.454Z,100889.63
2022-10-09T06:19:05.767Z,100893.66
2022-10-09T06:21:34.172Z,100894.28
2022-10-09T06:24:03.368Z,100899.03
2022-10-09T06:26:31.003Z,100896.66
2022-10-09T06:29:00.756Z,100900.59
2022-10-09T06:31:32.871Z,100910.53
2022-10-09T06:34:01.663Z,100910.72
2022-10-09T06:36:32.825Z,100918.03
2022-10-09T06:39:04.325Z,100918.84
2022-10-09T06:41:32.230Z,100920.06
2022-10-09T06:44:07.580Z,100932.75
2022-10-09T06:46:38.134Z,100922.13
2022-10-09T06:49:07.417Z,100928.84
2022-10-09T06:51:37.122Z,100916.97
2022-10-09T06:54:10.190Z,100936.53
2022-10-09T06:56:37.697Z,100939.72
2022-10-09T06:59:07.294Z,100947.72
2022-10-09T07:01:35.715Z,100955.47
2022-10-09T07:04:07.118Z,100955.41
2022-10-09T07:06:37.160Z,100952.09
2022-10-09T07:09:07.740Z,100962.28
2022-10-09T07:11:37.932Z,100956.09
2022-10-09T07:14:07.875Z,100967.03
2022-10-09T07:16:46.622Z,100970.00
2022-10-09T07:19:15.760Z,100975.22
2022-10-09T07:21:45.735Z,100973.25
2022-10-09T07:24:13.560Z,100975.72
2022-10-09T07:26:43.291Z,100979.22
2022-10-09T07:29:12.166Z,100983.81
2022-10-09T07:31:39.347Z,100985.81
2022-10-09T07:34:06.861Z,100984.09
2022-10-09T07:36:34.538Z,100989.66
2022-10-09T07:39:02.030Z,100992.13
2022-10-09T07:41:30.447Z,100999.97
2022-10-09T07:43:58.489Z,100991.03
2022-10-09T07:46:33.010Z,100995.19
2022-10-09T07:49:03.203Z,101002.28
2022-10-09T07:51:31.909Z,100998.13
2022-10-09T07:54:01.895Z,101007.13
2022-10-09T07:56:34.884Z,101001.50
2022-10-09T07:59:05.129Z,101009.84
2022-10-09T08:01:34.402Z,101010.44
2022-10-09T08:04:02.226Z,101014.94
2022-10-09T08:06:30.006Z,101005.47
2022-10-09T08:09:00.768Z,101010.91
2022-10-09T08:11:29.981Z,101027.44
2022-10-09T08:13:57.508Z,101023.31
2022-10-09T08:16:25.843Z,101035.59
2022-10-09T08:19:00.817Z,101014.56
2022-10-09T08:21:28.898Z,101031.06
2022-10-09T08:23:58.024Z,101038.75
2022-10-09T08:26:27.156Z,101050.53
2022-10-09T08:29:00.031Z,101051.56
2022-10-09T08:31:28.105Z,101053.91
2022-10-09T08:33:57.373Z,101053.22
2022-10-09T08:36:25.189Z,101064.38
2022-10-09T08:38:52.946Z,101064.19
2022-10-09T08:41:38.685Z,101066.16
2022-10-09T08:44:10.460Z,101072.16
2022-10-09T08:47:08.913Z,101071.19
2022-10-09T08:49:55.170Z,101079.47
2022-10-09T08:52:35.600Z,101082.25
2022-10-09T08:55:31.513Z,101081.69
2022-10-09T08:58:04.604Z,101081.16
2022-10-09T09:00:45.967Z,101081.09
2022-10-09T09:03:39.878Z,101096.47
2022-10-09T09:06:18.370Z,101092.50
2022-10-09T09:08:52.138Z,101100.94
2022-10-09T09:11:38.723Z,101106.16
2022-10-09T09:14:47.291Z,101097.72
2022-10-09T09:17:35.795Z,101096.88
2022-10-09T09:20:27.129Z,101099.75
2022-10-09T09:22:57.980Z,101090.69
2022-10-09T09:25:39.757Z,101105.47
2022-10-09T09:28:25.798Z,101110.31
2022-10-09T09:31:06.248Z,101103.66
2022-10-09T09:33:44.429Z,101116.28
2022-10-09T09:36:18.155Z,101117.66
2022-10-09T09:39:24.952Z,101101.56
2022-10-09T09:41:33.023Z,101107.44
2022-10-09T09:44:00.322Z,101117.81
2022-10-09T09:46:32.411Z,101114.59
2022-10-09T09:48:59.895Z,101113.38
2022-10-09T09:51:32.223Z,101111.28
2022-10-09T09:54:15.662Z,101119.47
2022-10-09T09:57:10.998Z,101109.00
2022-10-09T09:59:37.146Z,101108.13
2022-10-09T10:02:17.236Z,101120.75
2022-10-09T10:05:02.256Z,101103.16
2022-10-09T10:07:39.191Z,101095.22
2022-10-09T10:10:27.463Z,101106.19
2022-10-09T10:12:58.822Z,101110.63
2022-10-09T10:15:25.971Z,101124.84
2022-10-09T10:18:12.715Z,101126.28
2022-10-09T10:20:49.684Z,101117.13
2022-10-09T10:23:34.360Z,101119.25
2022-10-09T10:26:10.284Z,101128.69
2022-10-09T10:29:08.344Z,101130.16
2022-10-09T10:31:44.448Z,101127.41
2022-10-09T10:34:26.855Z,101128.53
2022-10-09T10:37:03.362Z,101131.28
2022-10-09T10:39:49.555Z,101135.47
2022-10-09T10:42:25.007Z,101144.41
2022-10-09T10:45:04.250Z,101149.09
2022-10-09T10:47:36.560Z,101143.75
2022-10-09T10:50:04.056Z,101140.56
2022-10-09T10:52:43.378Z,101146.31
2022-10-09T10:55:43.591Z,101142.09
2022-10-09T10:58:28.922Z,101136.13
2022-10-09T11:01:15.112Z,101150.94
2022-10-09T11:04:26.480Z,101154.22
2022-10-09T11:07:17.662Z,101135.91
2022-10-09T11:10:20.213Z,101143.97
2022-10-09T11:12:52.855Z,101149.78
2022-10-09T11:15:31.026Z,101141.34
2022-10-09T11:18:10.565Z,101150.22
2022-10-09T11:21:17.258Z,101142.94
2022-10-09T11:23:50.351Z,101138.34
2022-10-09T11:26:30.995Z,101133.03
2022-10-09T11:29:23.505Z,101136.19
2022-10-09T11:31:57.713Z,101133.19
2022-10-09T11:34:33.515Z,101126.41
2022-10-09T11:37:02.071Z,101134.00
2022-10-09T11:39:32.636Z,101137.28
2022-10-09T11:42:00.698Z,101143.53
2022-10-09T11:44:40.110Z,101141.16
2022-10-09T11:47:18.059Z,101139.28
2022-10-09T11:50:07.051Z,101138.91
2022-10-09T11:52:43.232Z,101142.78
2022-10-09T11:55:26.869Z,101138.44
2022-10-09T11:57:54.515Z,101131.72
2022-10-09T12:00:34.434Z,101140.88
2022-10-09T12:03:07.256Z,101154.91
2022-10-09T12:05:47.382Z,101144.34
2022-10-09T12:08:19.503Z,101146.38
2022-10-09T12:10:54.023Z,101144.78
2022-10-09T12:13:39.263Z,101141.19
2022-10-09T12:16:10.494Z,101121.09
2022-10-09T12:18:44.278Z,101140.31
2022-10-09T12:21:28.070Z,101136.50
2022-10-09T12:23:55.592Z,101149.97
2022-10-09T12:26:25.855Z,101145.25
2022-10-09T12:29:02.019Z,101150.34
2022-10-09T12:31:38.566Z,101155.06
2022-10-09T12:34:20.990Z,101153.16
2022-10-09T12:36:48.561Z,101157.59
2022-10-09T12:39:22.974Z,101151.53
2022-10-09T12:41:56.751Z,101147.25
2022-10-09T12:44:32.548Z,101145.66
2022-10-09T12:47:03.957Z,101126.50
2022-10-09T12:49:31.566Z,101147.94
2022-10-09T12:52:00.457Z,101131.75
2022-10-09T12:54:30.528Z,101146.41
2022-10-09T12:56:59.766Z,101128.41
2022-10-09T12:59:28.726Z,101150.06
2022-10-09T13:01:59.068Z,101154.34
2022-10-09T13:04:32.092Z,101134.75
2022-10-09T13:07:03.544Z,101148.59
2022-10-09T13:09:38.756Z,101163.06
2022-10-09T13:12:08.704Z,101158.91
2022-10-09T13:14:44.732Z,101151.13
2022-10-09T13:17:25.747Z,101170.88
2022-10-09T13:19:54.876Z,101163.06
2022-10-09T13:22:24.407Z,101147.91
2022-10-09T13:24:55.353Z,101168.03
2022-10-09T13:27:34.367Z,101169.41
2022-10-09T13:30:01.779Z,101176.88
2022-10-09T13:32:29.359Z,101173.09
2022-10-09T13:34:58.112Z,101170.31
2022-10-09T13:37:27.004Z,101174.16
2022-10-09T13:39:56.613Z,101174.16
2022-10-09T13:42:26.980Z,101167.09
2022-10-09T13:44:54.461Z,101161.53
2022-10-09T13:47:24.648Z,101169.56
2022-10-09T13:49:52.318Z,101178.09
2022-10-09T13:52:19.559Z,101171.44
2022-10-09T13:54:47.062Z,101170.75
2022-10-09T13:57:14.270Z,101173.69
2022-10-09T13:59:41.450Z,101159.50
2022-10-09T14:02:11.195Z,101156.56
2022-10-09T14:04:38.814Z,101170.47
2022-10-09T14:07:05.939Z,101178.59
2022-10-09T14:09:33.289Z,101176.22
2022-10-09T14:12:00.463Z,101165.84
2022-10-09T14:14:27.665Z,101164.53
2022-10-09T14:16:55.030Z,101161.59
2022-10-09T14:19:27.248Z,101176.94
2022-10-09T14:21:55.311Z,101177.22
2022-10-09T14:24:23.593Z,101173.50
2022-10-09T14:26:51.911Z,101175.41
2022-10-09T14:29:19.171Z,101174.50
2022-10-09T14:31:46.581Z,101166.00
2022-10-09T14:34:14.803Z,101175.66
2022-10-09T14:36:42.435Z,101182.03
2022-10-09T14:39:09.893Z,101174.34
2022-10-09T14:41:38.109Z,101160.69
2022-10-09T14:44:06.187Z,101170.63
2022-10-09T14:46:37.903Z,101169.66
2022-10-09T14:49:07.599Z,101177.53
2022-10-09T14:51:40.564Z,101178.16
2022-10-09T14:54:08.816Z,101166.25
2022-10-09T14:56:36.563Z,101167.28
2022-10-09T14:59:05.969Z,101179.44
2022-10-09T15:01:34.212Z,101176.63
2022-10-09T15:04:02.438Z,101179.50
2022-10-09T15:06:29.988Z,101194.22
2022-10-09T15:09:04.811Z,101183.91
2022-10-09T15:11:35.173Z,101165.75
2022-10-09T15:14:02.813Z,101187.56
2022-10-09T15:16:30.663Z,101173.53
2022-10-09T15:18:58.356Z,101187.25
2022-10-09T15:21:28.622Z,101182.88
2022-10-09T15:23:57.373Z,101158.00
2022-10-09T15:26:27.013Z,101186.09
2022-10-09T15:28:54.385Z,101181.59
2022-10-09T15:31:30.687Z,101196.66
2022-10-09T15:34:01.217Z,101189.59
2022-10-09T15:36:30.431Z,101197.69
2022-10-09T15:38:57.851Z,101176.78
2022-10-09T15:41:27.776Z,101197.69
2022-10-09T15:44:14.106Z,101200.88
2022-10-09T15:46:41.483Z,101191.16
2022-10-09T15:49:09.058Z,101193.88
2022-10-09T15:51:36.325Z,101194.09
2022-10-09T15:54:04.437Z,101202.41
2022-10-09T15:56:33.869Z,101204.50
2022-10-09T15:59:04.892Z,101216.53
2022-10-09T16:01:32.176Z,101217.84
2022-10-09T16:03:59.357Z,101214.28
2022-10-09T16:06:26.808Z,101220.56
2022-10-09T16:08:58.397Z,101224.19
2022-10-09T16:11:26.665Z,101225.00
2022-10-09T16:13:55.564Z,101209.69
2022-10-09T16:16:25.204Z,101212.84
2022-10-09T16:18:53.049Z,101227.75
2022-10-09T16:21:23.299Z,101220.06
2022-10-09T16:23:55.792Z,101233.63
2022-10-09T16:26:28.483Z,101218.53
2022-10-09T16:28:55.879Z,101221.66
2022-10-09T16:31:26.044Z,101221.28
2022-10-09T16:33:54.491Z,101237.00
2022-10-09T16:36:22.265Z,101234.75
2022-10-09T16:38:49.660Z,101220.63
2022-10-09T16:41:19.069Z,101229.75
2022-10-09T16:43:48.628Z,101238.75
2022-10-09T16:46:20.436Z,101239.78
2022-10-09T16:48:48.641Z,101249.03
2022-10-09T16:51:22.180Z,101220.13
2022-10-09T16:53:51.460Z,101236.22
2022-10-09T16:56:20.849Z,101251.13
2022-10-09T16:58:48.577Z,101240.09
2022-10-09T17:01:16.137Z,101225.25
2022-10-09T17:03:43.322Z,101231.09
2022-10-09T17:06:13.749Z,101230.94
2022-10-09T17:08:40.934Z,101246.72
2022-10-09T17:11:10.615Z,101231.69
2022-10-09T17:13:38.139Z,101224.09
2022-10-09T17:16:15.672Z,101218.09
2022-10-09T17:18:44.754Z,101242.19
2022-10-09T17:21:13.604Z,101228.59
2022-10-09T17:23:41.660Z,101246.16
2022-10-09T17:26:15.286Z,101252.41
2022-10-09T17:28:42.763Z,101242.97
2022-10-09T17:31:16.401Z,101237.38
2022-10-09T17:33:46.324Z,101230.63
2022-10-09T17:36:16.657Z,101240.28
2022-10-09T17:38:44.700Z,101233.06
2022-10-09T17:41:13.492Z,101236.75
2022-10-09T17:43:41.642Z,101254.09
2022-10-09T17:46:09.500Z,101253.13
2022-10-09T17:48:39.359Z,101249.69
2022-10-09T17:51:06.739Z,101260.13
2022-10-09T17:53:33.903Z,101250.03
2022-10-09T17:56:04.157Z,101250.44
2022-10-09T17:58:31.589Z,101250.34
2022-10-09T18:00:59.016Z,101259.13
2022-10-09T18:03:26.196Z,101240.47
2022-10-09T18:05:53.548Z,101252.47
2022-10-09T18:08:22.259Z,101255.44
2022-10-09T18:11:05.702Z,101256.25
2022-10-09T18:13:34.816Z,101238.97
2022-10-09T18:16:06.309Z,101247.59
2022-10-09T18:18:33.614Z,101260.97
2022-10-09T18:21:08.756Z,101242.31
2022-10-09T18:23:36.674Z,101263.97
2022-10-09T18:26:11.905Z,101263.13
2022-10-09T18:28:39.195Z,101265.41
2022-10-09T18:31:16.399Z,101238.13
2022-10-09T18:33:43.910Z,101250.00
2022-10-09T18:36:19.423Z,101244.31
2022-10-09T18:38:55.406Z,101258.84
2022-10-09T18:41:24.138Z,101266.47
2022-10-09T18:43:52.201Z,101274.13
2022-10-09T18:46:23.985Z,101244.00
2022-10-09T18:48:52.238Z,101274.47
2022-10-09T18:51:23.361Z,101263.56
2022-10-09T18:53:56.210Z,101275.34
2022-10-09T18:56:24.119Z,101273.09
2022-10-09T18:58:52.828Z,101285.75
2022-10-09T19:01:20.733Z,101279.28
2022-10-09T19:03:50.172Z,101264.53
2022-10-09T19:06:19.301Z,101281.97
2022-10-09T19:08:46.912Z,101286.34
2022-10-09T19:11:14.729Z,101275.44
2022-10-09T19:13:43.389Z,101282.81
2022-10-09T19:16:10.944Z,101281.94
2022-10-09T19:18:38.289Z,101262.59
2022-10-09T19:21:05.840Z,101266.31
2022-10-09T19:23:33.136Z,101269.00
2022-10-09T19:26:00.872Z,101264.44
2022-10-09T19:28:32.968Z,101263.59
2022-10-09T19:31:02.660Z,101265.03
2022-10-09T19:33:29.959Z,101262.03
2022-10-09T19:35:57.547Z,101280.63
2022-10-09T19:38:26.967Z,101284.72
2022-10-09T19:40:54.771Z,101281.84
2022-10-09T19:43:23.685Z,101285.09
2022-10-09T19:46:00.939Z,101275.69
2022-10-09T19:48:28.235Z,101273.00
2022-10-09T19:50:55.914Z,101260.22
2022-10-09T19:53:23.110Z,101269.84
2022-10-09T19:55:50.597Z,101272.41
2022-10-09T19:58:18.054Z,101261.22
2022-10-09T20:00:48.284Z,101268.81
2022-10-09T20:03:15.569Z,101266.94
2022-10-09T20:05:43.107Z,101272.31
2022-10-09T20:08:10.345Z,101275.59
2022-10-09T20:10:38.407Z,101280.34
2022-10-09T20:13:06.189Z,101258.38
2022-10-09T20:15:33.517Z,101255.78
2022-10-09T20:18:00.969Z,101254.78
2022-10-09T20:20:28.321Z,101264.69
2022-10-09T20:22:55.848Z,101274.47
2022-10-09T20:25:24.485Z,101269.00
2022-10-09T20:27:51.761Z,101270.22
2022-10-09T20:30:19.164Z,101263.53
2022-10-09T20:32:49.185Z,101253.34
2022-10-09T20:35:16.913Z,101268.38
2022-10-09T20:37:44.192Z,101261.97
2022-10-09T20:40:11.599Z,101278.25
2022-10-09T20:42:38.818Z,101258.91
2022-10-09T20:45:06.844Z,101262.09
2022-10-09T20:47:34.686Z,101279.91
2022-10-09T20:50:02.481Z,101264.03
2022-10-09T20:52:29.882Z,101275.19
2022-10-09T20:54:57.272Z,101275.00
2022-10-09T20:57:24.504Z,101258.91
2022-10-09T20:59:51.881Z,101264.94
2022-10-09T21:02:19.097Z,101275.22
2022-10-09T21:04:46.583Z,101272.47
2022-10-09T21:07:13.829Z,101256.25
2022-10-09T21:09:41.261Z,101260.31
2022-10-09T21:12:08.401Z,101272.97
2022-10-09T21:14:37.099Z,101275.66
2022-10-09T21:17:04.265Z,101276.06
2022-10-09T21:19:31.679Z,101260.50
2022-10-09T21:21:58.895Z,101278.59
2022-10-09T21:24:27.717Z,101263.56
2022-10-09T21:26:54.964Z,101255.53
2022-10-09T21:29:22.457Z,101270.63
2022-10-09T21:31:49.619Z,101268.84
2022-10-09T21:34:17.008Z,101257.81
2022-10-09T21:37:20.843Z,101277.69
2022-10-09T21:39:37.300Z,101271.94
2022-10-09T21:42:04.731Z,101264.03
2022-10-09T21:44:32.134Z,101271.34
2022-10-09T21:46:59.434Z,101256.31
2022-10-09T21:49:28.053Z,101245.75
2022-10-09T21:51:56.171Z,101268.13
2022-10-09T21:54:23.752Z,101272.28
2022-10-09T21:56:50.955Z,101271.81
2022-10-09T21:59:18.119Z,101275.28
2022-10-09T22:01:45.520Z,101277.25
2022-10-09T22:04:12.800Z,101271.91
2022-10-09T22:06:41.208Z,101270.66
2022-10-09T22:09:08.943Z,101266.81
2022-10-09T22:11:36.232Z,101271.75
2022-10-09T22:14:05.084Z,101262.22
2022-10-09T22:16:32.420Z,101265.13
2022-10-09T22:19:00.393Z,101270.59
2022-10-09T22:21:27.843Z,101280.25
2022-10-09T22:23:55.119Z,101279.25
2022-10-09T22:26:23.474Z,101272.50
2022-10-09T22:28:50.628Z,101271.13
2022-10-09T22:31:19.922Z,101267.69
2022-10-09T22:33:54.832Z,101276.84
2022-10-09T22:36:24.190Z,101277.88
2022-10-09T22:38:58.848Z,101253.66
2022-10-09T22:41:28.210Z,101267.91
2022-10-09T22:43:59.461Z,101269.31
2022-10-09T22:46:31.230Z,101270.81
2022-10-09T22:48:58.945Z,101279.19
2022-10-09T22:51:28.165Z,101266.13
2022-10-09T22:53:57.059Z,101250.34
2022-10-09T22:56:27.014Z,101278.63
2022-10-09T22:58:54.478Z,101273.31
2022-10-09T23:01:30.031Z,101254.16
2022-10-09T23:03:58.642Z,101269.06
2022-10-09T23:06:25.982Z,101270.88
2022-10-09T23:08:53.551Z,101271.13
2022-10-09T23:11:21.745Z,101269.72
2022-10-09T23:13:54.262Z,101274.09
2022-10-09T23:16:21.950Z,101265.09
2022-10-09T23:18:49.502Z,101264.19
2022-10-09T23:21:19.041Z,101270.69
2022-10-09T23:23:48.131Z,101265.31
2022-10-09T23:26:18.737Z,101265.97
2022-10-09T23:28:54.849Z,101238.78
2022-10-09T23:31:23.075Z,101257.31
2022-10-09T23:33:50.636Z,101247.66
2022-10-09T23:36:20.795Z,101269.53
2022-10-09T23:38:48.823Z,101259.56
2022-10-09T23:41:21.232Z,101261.16
2022-10-09T23:43:49.544Z,101246.16
2022-10-09T23:46:19.530Z,101270.28
2022-10-09T23:48:47.590Z,101258.47
2022-10-09T23:51:15.924Z,101249.44
2022-10-09T23:53:43.951Z,101238.06
2022-10-09T23:56:21.551Z,101237.16
2022-10-09T23:58:49.294Z,101249.59
